El Monte (240, 1138) Station Data

Red Flag Warning: No
Fire Weather Zone: 250
SDGE Region: Eastern
Lat/Lon: 32.867/-116.896

Observations

Time Wind Speed/Gust Temp(F) RH Fuel Moist Fuel Temp(F) Dewpt(F) Tmax(F) Tmin(F) Accum Precip 10-min Precip SL Press(mb)
5/24 8:30am 287 5 G 9 62° 79% - - 56° 62.9° 57.4° - - -
5/24 8:20am 255 5 G 10 62° 80% - - 56° 62.9° 57.4° - - -
5/24 8:10am 68 1 G 2 62° 82% - - 57° 62.9° 59.4° - - -
5/24 8:00am 65 4 G 7 61° 86% - - 57° 62.9° 57.4° - - -
5/24 7:50am 83 2 G 5 60° 86% - - 56° 62.9° 57.4° - - -
5/24 7:40am 72 2 G 6 60° 88% - - 57° 62.9° 57.4° - - -
5/24 7:30am 96 2 G 5 60° 88% - - 56° 62.9° 57.4° - - -
5/24 7:20am 77 2 G 4 60° 89% - - 56° 62.9° 57.4° - - -
5/24 7:10am 62 3 G 6 60° 89% - - 57° 62.9° 57.4° - - -
5/24 7:00am 54 2 G 5 60° 90% - - 57° 62.9° 57.4° - - -
5/24 6:50am 18 1 G 4 59° 91% - - 57° 62.9° 57.4° - - -
5/24 6:40am 231 2 G 4 59° 91% - - 57° 62.9° 57.4° - - -
5/24 6:30am 243 2 G 7 59° 92% - - 57° 62.9° 57.4° - - -
5/24 6:20am 270 2 G 4 59° 92% - - 57° 62.9° 57.4° - - -
5/24 6:10am 257 3 G 4 58° 92% - - 56° 62.9° 57.4° - - -
5/24 6:00am 227 2 G 4 58° 92% - - 55° 62.9° 57.4° - - -
5/24 5:50am 224 2 G 4 58° 92% - - 55° 62.9° 57.5° - - -
5/24 5:40am 360 0 G 2 58° 92% - - 56° 62.9° 57.7° - - -
5/24 5:30am 353 2 G 5 58° 92% - - 56° 62.9° 57.7° - - -
5/24 5:20am 28 4 G 7 58° 92% - - 56° 62.9° 57.8° - - -
5/24 5:10am 53 5 G 9 58° 92% - - 56° 62.9° 57.8° - - -
5/24 5:00am 56 6 G 10 58° 92% - - 56° 62.9° 57.8° - - -
5/24 4:50am 51 4 G 8 59° 92% - - 56° 62.9° 57.8° - - -
5/24 4:40am 58 5 G 8 59° 92% - - 56° 62.9° 57.8° - - -
5/24 4:30am 57 5 G 7 59° 91% - - 57° 62.9° 57.8° - - -
5/24 4:20am 54 3 G 5 59° 92% - - 57° 62.9° 57.8° - - -
5/24 4:10am 67 3 G 5 59° 91% - - 57° 62.9° 57.8° - - -
5/24 4:00am 10 0 G 2 59° 91% - - 57° 62.9° 57.8° - - -
5/24 3:50am 274 2 G 4 59° 91% - - 57° 62.9° 57.8° - - -
5/24 3:40am 315 2 G 4 59° 91% - - 57° 62.9° 57.8° - - -
5/24 3:30am 333 1 G 3 59° 91% - - 57° 62.9° 57.8° - - -
5/24 3:20am 322 2 G 4 59° 91% - - 57° 62.9° 57.8° - - -
5/24 3:10am 277 3 G 5 59° 91% - - 56° 62.9° 57.8° - - -
5/24 3:00am 251 1 G 3 59° 90% - - 56° 62.9° 57.8° - - -
5/24 2:50am 215 2 G 3 59° 89% - - 55° 62.9° 57.8° - - -
5/24 2:40am 245 1 G 1 58° 89% - - 55° 62.9° 57.8° - - -
5/24 2:30am 235 1 G 2 58° 88% - - 55° 62.9° 57.8° - - -
5/24 2:20am 244 2 G 3 58° 87% - - 54° 62.9° 57.8° - - -
5/24 2:10am 257 1 G 3 59° 86% - - 55° 62.9° 58.5° - - -
5/24 2:00am 254 1 G 3 59° 85% - - 55° 62.9° 58.9° - - -
5/24 1:50am 111 1 G 2 59° 82% - - 54° 62.9° 58.9° - - -
5/24 1:40am 273 0 G 3 60° 81% - - 54° 62.9° 59.6° - - -
5/24 1:30am 261 0 G 2 60° 80% - - 54° 62.9° 59.9° - - -
5/24 1:20am 255 0 G 2 60° 79% - - 54° 62.9° 60.1° - - -
5/24 1:10am 239 0 G 1 61° 79% - - 54° 62.9° 60.2° - - -
5/24 1:00am 136 1 G 2 61° 78% - - 54° 62.9° 60.4° - - -
5/24 12:50am 273 0 G 2 61° 77% - - 54° 62.9° 60.7° - - -
5/24 12:40am 192 1 G 3 62° 76% - - 54° 62.9° 61.4° - - -
5/24 12:30am 199 1 G 2 62° 76% - - 54° 62.9° 61.6° - - -
5/24 12:20am 219 0 G 1 62° 75% - - 54° 62.9° 61.8° - - -
5/24 12:10am 320 1 G 4 63° 75% - - 55° 62.9° 62.3° - - -
5/24 12:00am 21 1 G 2 63° 74% - - 54° 87.9° 55.3° - - -
5/23 11:50pm 257 2 G 4 63° 73% - - 55° 87.9° 55.3° - - -
5/23 11:40pm 9 0 G 2 64° 72% - - 54° 87.9° 55.3° - - -
5/23 11:30pm 235 1 G 2 64° 71% - - 54° 87.9° 55.3° - - -
5/23 11:20pm 322 1 G 4 65° 69% - - 54° 87.9° 55.3° - - -
5/23 11:10pm 248 2 G 4 65° 68% - - 54° 87.9° 55.3° - - -
5/23 11:00pm 251 1 G 3 65° 68% - - 54° 87.9° 55.3° - - -
5/23 10:50pm 258 0 G 1 65° 69% - - 55° 87.9° 55.3° - - -
5/23 10:40pm 340 0 G 1 66° 68% - - 55° 87.9° 55.3° - - -
5/23 10:30pm 232 0 G 1 66° 66% - - 55° 87.9° 55.3° - - -
5/23 10:20pm 299 0 G 1 67° 64% - - 54° 87.9° 55.3° - - -
5/23 10:10pm 0 0 G 0 67° 62% - - 54° 87.9° 55.3° - - -
5/23 10:00pm 197 0 G 1 68° 60% - - 54° 87.9° 55.3° - - -
5/23 9:50pm 189 1 G 2 68° 60% - - 54° 87.9° 55.3° - - -
5/23 9:40pm 140 1 G 2 68° 60% - - 54° 87.9° 55.3° - - -
5/23 9:30pm 93 0 G 1 69° 59% - - 54° 87.9° 55.3° - - -
5/23 9:20pm 336 1 G 3 70° 58% - - 54° 87.9° 55.3° - - -
5/23 9:10pm 276 2 G 4 70° 56% - - 54° 87.9° 55.3° - - -
5/23 9:00pm 159 1 G 2 70° 55% - - 53° 87.9° 55.3° - - -
5/23 8:50pm 252 1 G 3 71° 53% - - 53° 87.9° 55.3° - - -
5/23 8:40pm 269 1 G 2 72° 50% - - 53° 87.9° 55.3° - - -
5/23 8:30pm 234 0 G 3 73° 49% - - 53° 87.9° 55.3° - - -
5/23 8:20pm 242 1 G 2 73° 49% - - 53° 87.9° 55.3° - - -
5/23 8:10pm 240 1 G 4 74° 46% - - 52° 87.9° 55.3° - - -
5/23 8:00pm 228 2 G 4 75° 45% - - 52° 87.9° 55.3° - - -
5/23 7:50pm 240 2 G 5 76° 43% - - 52° 87.9° 55.3° - - -
5/23 7:40pm 250 3 G 5 76° 42% - - 52° 87.9° 55.3° - - -
5/23 7:30pm 240 3 G 4 77° 40% - - 51° 87.9° 55.3° - - -
5/23 7:20pm 275 3 G 4 78° 41% - - 52° 87.9° 55.3° - - -
5/23 7:10pm 275 5 G 8 78° 39% - - 51° 87.9° 55.3° - - -
5/23 7:00pm 257 6 G 9 79° 37% - - 51° 87.9° 55.3° - - -
5/23 6:50pm 255 6 G 11 80° 36% - - 50° 87.9° 55.3° - - -
5/23 6:40pm 257 7 G 11 81° 34% - - 50° 87.9° 55.3° - - -
5/23 6:30pm 254 6 G 11 81° 34% - - 50° 87.9° 55.3° - - -
5/23 6:20pm 239 6 G 10 82° 34% - - 50° 87.9° 55.3° - - -
5/23 6:10pm 232 8 G 13 82° 33% - - 50° 87.9° 55.3° - - -
5/23 6:00pm 240 9 G 14 83° 31% - - 49° 87.9° 55.3° - - -
5/23 5:50pm 242 9 G 14 84° 29% - - 48° 87.9° 55.3° - - -
5/23 5:40pm 246 8 G 15 86° 26% - - 47° 87.9° 55.3° - - -
5/23 5:30pm 233 7 G 13 86° 25% - - 46° 87.9° 55.3° - - -
5/23 5:20pm 237 6 G 10 87° 24% - - 46° 87.9° 55.3° - - -
5/23 5:10pm 232 6 G 10 88° 22% - - 44° 87.9° 55.3° - - -
5/23 5:00pm 213 5 G 10 87° 23% - - 44° 87.9° 55.3° - - -
5/23 4:50pm 241 5 G 8 87° 23% - - 45° 87.9° 55.3° - - -
5/23 4:40pm 217 4 G 7 87° 24% - - 46° 87.9° 55.3° - - -
5/23 4:30pm 235 5 G 11 86° 27% - - 48° 87.9° 55.3° - - -
5/23 4:20pm 226 4 G 9 86° 27% - - 48° 87.9° 55.3° - - -
5/23 4:10pm 230 5 G 10 85° 29% - - 49° 87.9° 55.3° - - -
5/23 4:00pm 203 4 G 7 85° 30% - - 50° 87.9° 55.3° - - -
5/23 3:50pm 280 4 G 9 84° 32% - - 51° 87.9° 55.3° - - -
5/23 3:40pm 254 4 G 8 83° 33% - - 51° 87.9° 55.3° - - -
5/23 3:30pm 219 4 G 7 83° 34% - - 51° 87.9° 55.3° - - -
5/23 3:20pm 242 4 G 8 82° 37% - - 53° 87.9° 55.3° - - -
5/23 3:10pm 228 5 G 9 81° 39% - - 54° 87.9° 55.3° - - -
5/23 3:00pm 244 5 G 10 80° 41% - - 54° 87.9° 55.3° - - -
5/23 2:50pm 229 5 G 10 80° 40% - - 54° 87.9° 55.3° - - -
5/23 2:40pm 253 6 G 13 80° 42% - - 55° 87.9° 55.3° - - -
5/23 2:30pm 226 6 G 11 80° 42% - - 55° 87.9° 55.3° - - -
5/23 2:20pm 246 6 G 12 79° 43% - - 55° 87.9° 55.3° - - -
5/23 2:10pm 235 6 G 12 79° 44% - - 55° 87.9° 55.3° - - -
5/23 2:00pm 224 7 G 11 79° 44% - - 55° 87.9° 55.3° - - -
5/23 1:50pm 233 7 G 12 78° 44% - - 55° 87.9° 55.3° - - -
5/23 1:40pm 251 8 G 14 78° 45% - - 55° 87.9° 55.3° - - -
5/23 1:30pm 247 8 G 14 78° 45% - - 55° 87.9° 55.3° - - -
5/23 1:20pm 239 9 G 14 78° 45% - - 55° 87.9° 55.3° - - -
5/23 1:10pm 242 8 G 14 78° 45% - - 55° 87.9° 55.3° - - -
5/23 1:00pm 240 8 G 14 79° 44% - - 55° 87.9° 55.3° - - -
5/23 12:50pm 254 9 G 15 79° 44% - - 55° 87.9° 55.3° - - -
5/23 12:40pm 245 10 G 15 79° 44% - - 55° 87.9° 55.3° - - -
5/23 12:30pm 247 9 G 14 79° 44% - - 55° 87.9° 55.3° - - -
5/23 12:20pm 252 9 G 14 80° 43% - - 55° 87.9° 55.3° - - -
5/23 12:10pm 253 11 G 17 81° 42% - - 55° 87.9° 55.3° - - -
5/23 12:00pm 253 10 G 15 81° 40% - - 55° 87.9° 55.3° - - -
5/23 11:50am 255 11 G 20 82° 38% - - 54° 87.9° 55.3° - - -
5/23 11:40am 251 9 G 15 86° 28% - - 49° 87.9° 55.3° - - -
5/23 11:30am 253 7 G 12 87° 23% - - 45° 87.9° 55.3° - - -
5/23 11:20am 254 6 G 11 87° 22% - - 43° 87.4° 55.3° - - -
5/23 11:10am 252 5 G 8 86° 22% - - 42° 86.5° 55.3° - - -
5/23 11:00am 264 5 G 9 84° 27% - - 47° 84.9° 55.3° - - -
5/23 10:50am 261 5 G 9 84° 26% - - 45° 84.3° 55.3° - - -
5/23 10:40am 246 4 G 7 83° 27% - - 45° 83.8° 55.3° - - -
5/23 10:30am 285 3 G 6 81° 32% - - 49° 82.7° 55.3° - - -
5/23 10:20am 301 3 G 4 80° 35% - - 49° 80.7° 55.3° - - -
5/23 10:10am 304 2 G 3 78° 38% - - 50° 79.1° 55.3° - - -
5/23 10:00am 297 2 G 3 76° 44% - - 53° 77.1° 55.3° - - -
5/23 9:50am 299 2 G 3 75° 48% - - 54° 75.5° 55.3° - - -
5/23 9:40am 302 2 G 3 73° 51% - - 54° 73.8° 55.3° - - -
5/23 9:30am 307 2 G 3 72° 54% - - 54° 72.3° 55.3° - - -
5/23 9:20am 316 2 G 3 70° 58% - - 55° 70.9° 55.3° - - -
5/23 9:10am 291 2 G 3 69° 62% - - 55° 69.4° 55.3° - - -
5/23 9:00am 291 2 G 4 67° 67% - - 55° 67.8° 55.3° - - -
5/23 8:50am 303 3 G 5 66° 68% - - 55° 67.1° 55.3° - - -
5/23 8:40am 53 3 G 6 66° 68% - - 55° 67.1° 55.3° - - -
5/23 8:30am 63 4 G 6 65° 71% - - 55° 65.4° 55.3° - - -
5/23 8:20am 51 2 G 6 63° 78% - - 56° 64.7° 55.3° - - -
5/23 8:10am 109 1 G 2 62° 84% - - 57° 62.5° 55.3° - - -
5/23 8:00am 328 1 G 2 61° 85% - - 56° 62° 55.3° - - -
5/23 7:50am 280 1 G 3 61° 85% - - 56° 62° 55.3° - - -
5/23 7:40am 195 1 G 3 60° 87% - - 57° 62° 55.3° - - -
5/23 7:30am 229 1 G 2 60° 89% - - 56° 62° 55.3° - - -
5/23 7:20am 204 0 G 1 59° 90% - - 56° 62° 55.3° - - -
5/23 7:10am 212 1 G 2 58° 90% - - 55° 62° 55.3° - - -
5/23 7:00am 226 0 G 2 58° 90% - - 55° 62° 55.3° - - -
5/23 6:50am 355 0 G 1 58° 90% - - 55° 62° 55.3° - - -
5/23 6:40am 55 0 G 1 57° 91% - - 55° 62° 55.3° - - -
5/23 6:30am 57 2 G 3 56° 91% - - 53° 62° 55.3° - - -
5/23 6:20am 71 1 G 3 56° 91% - - 53° 62° 55.3° - - -
5/23 6:10am 135 1 G 1 56° 91% - - 53° 62° 55.3° - - -
5/23 6:00am 229 0 G 0 56° 91% - - 53° 62° 55.3° - - -